createdAt,value
2023-01-10T00:02:08.049Z,5.00
2023-01-10T00:04:36.022Z,3.25
2023-01-10T00:07:04.019Z,3.95
2023-01-10T00:09:31.922Z,2.70
2023-01-10T00:12:18.253Z,3.30
2023-01-10T00:14:46.180Z,2.97
2023-01-10T00:17:14.163Z,3.08
2023-01-10T00:19:42.167Z,2.63
2023-01-10T00:22:10.492Z,3.08
2023-01-10T00:24:39.003Z,2.80
2023-01-10T00:27:09.143Z,2.42
2023-01-10T00:29:37.665Z,2.67
2023-01-10T00:32:05.640Z,2.30
2023-01-10T00:34:34.818Z,2.45
2023-01-10T00:37:02.760Z,2.30
2023-01-10T00:39:33.904Z,1.85
2023-01-10T00:42:20.309Z,1.67
2023-01-10T00:44:48.982Z,2.42
2023-01-10T00:47:16.913Z,2.08
2023-01-10T00:49:45.040Z,2.13
2023-01-10T00:52:12.943Z,1.90
2023-01-10T00:54:40.901Z,1.30
2023-01-10T00:57:08.951Z,1.90
2023-01-10T00:59:36.808Z,1.80
2023-01-10T01:02:04.823Z,1.70
2023-01-10T01:04:34.344Z,1.70
2023-01-10T01:07:02.729Z,2.25
2023-01-10T01:09:30.945Z,1.30
2023-01-10T01:11:59.122Z,1.88
2023-01-10T01:14:27.024Z,2.05
2023-01-10T01:16:55.325Z,1.92
2023-01-10T01:19:23.331Z,2.30
2023-01-10T01:21:51.250Z,2.40
2023-01-10T01:24:21.311Z,1.70
2023-01-10T01:26:49.224Z,2.20
2023-01-10T01:29:18.185Z,2.20
2023-01-10T01:31:46.121Z,2.60
2023-01-10T01:34:14.684Z,2.28
2023-01-10T01:36:42.651Z,2.38
2023-01-10T01:39:10.619Z,2.28
2023-01-10T01:41:57.018Z,2.58
2023-01-10T01:44:32.209Z,2.72
2023-01-10T01:47:25.082Z,3.42
2023-01-10T01:49:53.271Z,2.95
2023-01-10T01:52:30.459Z,2.75
2023-01-10T01:54:59.282Z,2.55
2023-01-10T01:57:29.205Z,2.25
2023-01-10T01:59:57.354Z,3.22
2023-01-10T02:02:32.249Z,2.63
2023-01-10T02:05:01.033Z,3.08
2023-01-10T02:07:34.912Z,2.95
2023-01-10T02:10:12.522Z,2.60
2023-01-10T02:12:40.969Z,3.30
2023-01-10T02:15:11.274Z,3.00
2023-01-10T02:17:39.493Z,3.10
2023-01-10T02:20:12.135Z,2.67
2023-01-10T02:23:13.579Z,1.90
2023-01-10T02:25:44.596Z,2.92
2023-01-10T02:29:16.153Z,3.45
2023-01-10T02:32:15.919Z,2.63
2023-01-10T02:35:07.819Z,2.80
2023-01-10T02:38:35.375Z,3.65
2023-01-10T02:41:28.190Z,3.67
2023-01-10T02:44:08.966Z,2.80
2023-01-10T02:46:38.652Z,2.67
2023-01-10T02:49:06.932Z,3.35
2023-01-10T02:51:34.873Z,2.50
2023-01-10T02:54:11.989Z,3.63
2023-01-10T02:57:02.679Z,2.72
2023-01-10T02:59:51.466Z,3.65
2023-01-10T03:02:41.407Z,2.95
2023-01-10T03:05:58.195Z,2.72
2023-01-10T03:08:26.199Z,3.07
2023-01-10T03:11:09.293Z,3.13
2023-01-10T03:13:53.917Z,2.97
2023-01-10T03:16:28.077Z,3.35
2023-01-10T03:19:01.454Z,2.70
2023-01-10T03:21:31.556Z,3.17
2023-01-10T03:24:05.326Z,2.60
2023-01-10T03:27:08.173Z,2.60
2023-01-10T03:29:53.786Z,2.35
2023-01-10T03:32:26.723Z,2.90
2023-01-10T03:34:55.303Z,2.95
2023-01-10T03:37:32.065Z,2.70
2023-01-10T03:40:12.520Z,2.60
2023-01-10T03:43:32.707Z,2.93
2023-01-10T03:46:11.093Z,3.13
2023-01-10T03:48:43.802Z,2.95
2023-01-10T03:51:12.838Z,3.33
2023-01-10T03:53:40.883Z,3.80
2023-01-10T03:56:08.872Z,3.17
2023-01-10T03:58:36.748Z,2.83
2023-01-10T04:01:04.815Z,2.78
2023-01-10T04:03:32.774Z,3.28
2023-01-10T04:06:00.750Z,2.53
2023-01-10T04:08:28.672Z,3.95
2023-01-10T04:10:56.696Z,2.78
2023-01-10T04:13:24.524Z,3.42
2023-01-10T04:15:53.470Z,3.28
2023-01-10T04:18:21.346Z,3.22
2023-01-10T04:20:50.675Z,4.00
2023-01-10T04:23:20.005Z,3.63
2023-01-10T04:25:48.285Z,3.20
2023-01-10T04:28:16.191Z,3.35
2023-01-10T04:30:44.059Z,3.17
2023-01-10T04:33:12.620Z,2.55
2023-01-10T04:35:40.577Z,3.47
2023-01-10T04:38:08.457Z,3.42
2023-01-10T04:40:36.343Z,3.08
2023-01-10T04:43:04.234Z,3.72
2023-01-10T04:45:32.186Z,4.07
2023-01-10T04:48:00.201Z,3.13
2023-01-10T04:50:28.073Z,2.78
2023-01-10T04:52:56.032Z,2.78
2023-01-10T04:55:23.932Z,3.13
2023-01-10T04:57:51.799Z,3.88
2023-01-10T05:00:19.987Z,3.72
2023-01-10T05:02:47.995Z,3.90
2023-01-10T05:05:16.103Z,3.78
2023-01-10T05:07:47.368Z,3.25
2023-01-10T05:12:42.973Z,3.10
2023-01-10T05:15:11.246Z,3.30
2023-01-10T05:17:39.439Z,3.40
2023-01-10T05:20:08.206Z,4.03
2023-01-10T05:22:36.088Z,3.42
2023-01-10T05:25:04.146Z,4.25
2023-01-10T05:27:32.062Z,4.10
2023-01-10T05:29:59.971Z,3.42
2023-01-10T05:32:30.911Z,2.88
2023-01-10T05:34:58.808Z,3.45
2023-01-10T05:37:26.647Z,4.18
2023-01-10T05:39:54.506Z,4.47
2023-01-10T05:42:22.443Z,3.28
2023-01-10T05:44:50.306Z,4.05
2023-01-10T05:47:18.191Z,3.38
2023-01-10T05:49:46.060Z,4.03
2023-01-10T05:52:14.476Z,3.20
2023-01-10T05:54:42.473Z,3.78
2023-01-10T05:57:10.420Z,3.63
2023-01-10T05:59:38.374Z,4.38
2023-01-10T06:02:06.244Z,3.78
2023-01-10T06:04:34.196Z,3.92
2023-01-10T06:07:02.178Z,3.15
2023-01-10T06:09:30.032Z,3.40
2023-01-10T06:11:57.992Z,2.00
2023-01-10T06:14:25.854Z,3.45
2023-01-10T06:16:53.722Z,3.40
2023-01-10T06:19:21.574Z,3.47
2023-01-10T06:21:49.445Z,2.72
2023-01-10T06:24:17.406Z,3.10
2023-01-10T06:26:45.297Z,3.47
2023-01-10T06:29:13.369Z,3.70
2023-01-10T06:31:42.306Z,3.20
2023-01-10T06:34:10.188Z,3.00
2023-01-10T06:36:38.093Z,3.55
2023-01-10T06:39:05.925Z,4.55
2023-01-10T06:41:33.794Z,3.60
2023-01-10T06:44:01.706Z,4.22
2023-01-10T06:46:29.642Z,4.40
2023-01-10T06:48:57.510Z,4.30
2023-01-10T06:51:25.585Z,4.15
2023-01-10T06:53:54.440Z,4.07
2023-01-10T06:56:22.338Z,3.70
2023-01-10T06:58:50.894Z,4.32
2023-01-10T07:01:21.495Z,4.80
2023-01-10T07:03:49.760Z,5.68
2023-01-10T07:06:17.709Z,4.00
2023-01-10T07:08:47.027Z,4.22
2023-01-10T07:11:17.087Z,4.38
2023-01-10T07:13:45.110Z,4.80
2023-01-10T07:16:14.687Z,4.28
2023-01-10T07:18:43.313Z,4.53
2023-01-10T07:21:11.926Z,4.72
2023-01-10T07:23:55.800Z,4.25
2023-01-10T07:26:24.279Z,4.90
2023-01-10T07:28:52.288Z,5.15
2023-01-10T07:31:22.884Z,5.20
2023-01-10T07:33:54.149Z,4.85
2023-01-10T07:38:50.485Z,4.35
2023-01-10T07:41:18.313Z,5.47
2023-01-10T07:43:46.223Z,5.22
2023-01-10T07:46:16.298Z,5.00
2023-01-10T07:48:46.169Z,4.78
2023-01-10T07:51:14.047Z,3.78
2023-01-10T07:53:41.997Z,4.70
2023-01-10T07:56:09.942Z,4.95
2023-01-10T07:58:37.929Z,5.22
2023-01-10T08:01:07.097Z,3.97
2023-01-10T08:03:35.538Z,5.30
2023-01-10T08:06:06.732Z,5.25
2023-01-10T08:08:45.017Z,4.25
2023-01-10T08:11:12.934Z,4.53
2023-01-10T08:13:41.035Z,5.30
2023-01-10T08:16:10.574Z,4.25
2023-01-10T08:19:01.289Z,4.32
2023-01-10T08:21:54.997Z,5.80
2023-01-10T08:25:58.972Z,5.25
2023-01-10T08:28:29.160Z,4.28
2023-01-10T08:31:08.047Z,3.50
2023-01-10T08:34:01.027Z,4.97
2023-01-10T08:36:30.012Z,5.32
2023-01-10T08:39:01.530Z,4.63
2023-01-10T08:41:29.524Z,5.25
2023-01-10T08:44:22.025Z,5.97
2023-01-10T08:46:56.753Z,5.53
2023-01-10T08:49:49.980Z,3.95
2023-01-10T08:52:18.105Z,4.50
2023-01-10T08:54:45.969Z,3.13
2023-01-10T08:57:14.082Z,5.63
2023-01-10T08:59:43.031Z,4.55
2023-01-10T09:02:13.961Z,4.88
2023-01-10T09:05:14.997Z,4.45
2023-01-10T09:07:50.113Z,3.90
2023-01-10T09:10:42.860Z,4.18
2023-01-10T09:13:10.584Z,5.05
2023-01-10T09:15:38.808Z,4.70
2023-01-10T09:18:08.498Z,4.20
2023-01-10T09:20:38.340Z,5.90
2023-01-10T09:23:11.541Z,3.58
2023-01-10T09:25:39.520Z,4.05
2023-01-10T09:28:07.572Z,5.53
2023-01-10T09:30:35.650Z,5.30
2023-01-10T09:33:04.025Z,4.20
2023-01-10T09:35:32.919Z,4.60
2023-01-10T09:38:01.906Z,4.68
2023-01-10T09:40:54.135Z,5.05
2023-01-10T09:43:30.824Z,5.85
2023-01-10T09:46:12.991Z,5.32
2023-01-10T09:48:59.328Z,5.32
2023-01-10T09:51:39.883Z,4.97
2023-01-10T09:54:16.667Z,4.85
2023-01-10T09:56:46.724Z,6.07
2023-01-10T09:59:19.870Z,5.00
2023-01-10T10:02:33.224Z,6.47
2023-01-10T10:05:25.036Z,7.30
2023-01-10T10:07:59.015Z,5.07
2023-01-10T10:11:20.695Z,5.75
2023-01-10T10:14:06.993Z,6.40
2023-01-10T10:17:16.663Z,5.85
2023-01-10T10:20:18.104Z,5.10
2023-01-10T10:23:35.768Z,4.78
2023-01-10T10:26:24.334Z,4.85
2023-01-10T10:29:49.289Z,5.18
2023-01-10T10:32:45.967Z,5.25
2023-01-10T10:35:30.575Z,5.63
2023-01-10T10:38:08.276Z,6.45
2023-01-10T10:40:39.676Z,5.68
2023-01-10T10:43:22.311Z,6.20
2023-01-10T10:46:00.341Z,5.97
2023-01-10T10:48:36.924Z,5.43
2023-01-10T10:51:23.170Z,5.38
2023-01-10T10:53:52.304Z,5.38
2023-01-10T10:56:24.485Z,5.25
2023-01-10T10:58:55.840Z,5.72
2023-01-10T11:04:10.753Z,5.63
2023-01-10T11:06:45.812Z,4.78
2023-01-10T11:09:15.035Z,5.57
2023-01-10T11:11:50.264Z,5.07
2023-01-10T11:14:51.203Z,4.03
2023-01-10T11:17:19.129Z,5.85
2023-01-10T11:20:02.747Z,5.03
2023-01-10T11:22:53.975Z,5.25
2023-01-10T11:25:25.150Z,5.20
2023-01-10T11:27:57.589Z,4.93
2023-01-10T11:30:31.311Z,4.35
2023-01-10T11:33:08.125Z,4.95
2023-01-10T11:35:38.777Z,5.75
2023-01-10T11:38:24.435Z,6.18
2023-01-10T11:41:27.149Z,5.93
2023-01-10T11:44:22.756Z,6.40
2023-01-10T11:46:56.614Z,6.18
2023-01-10T11:49:38.074Z,6.03
2023-01-10T11:52:26.593Z,5.95
2023-01-10T11:54:58.468Z,6.80
2023-01-10T11:57:28.642Z,4.72
2023-01-10T12:00:04.066Z,5.53
2023-01-10T12:02:44.588Z,5.03
2023-01-10T12:05:20.945Z,6.60
2023-01-10T12:08:01.443Z,5.90
2023-01-10T12:10:29.715Z,5.63
2023-01-10T12:13:01.012Z,4.90
2023-01-10T12:15:34.481Z,4.00
2023-01-10T12:18:04.901Z,7.07
2023-01-10T12:20:41.369Z,5.18
2023-01-10T12:23:18.179Z,5.72
2023-01-10T12:25:46.703Z,5.18
2023-01-10T12:28:23.003Z,4.60
2023-01-10T12:30:54.912Z,4.80
2023-01-10T12:33:28.673Z,4.68
2023-01-10T12:36:09.162Z,5.28
2023-01-10T12:39:04.968Z,4.57
2023-01-10T12:42:00.313Z,5.40
2023-01-10T12:44:44.888Z,4.28
2023-01-10T12:47:35.314Z,5.40
2023-01-10T12:50:25.008Z,5.68
2023-01-10T12:53:28.278Z,5.30
2023-01-10T12:56:00.911Z,4.50
2023-01-10T12:58:45.970Z,4.40
2023-01-10T13:01:35.046Z,3.95
2023-01-10T13:04:09.289Z,4.78
2023-01-10T13:06:41.146Z,5.03
2023-01-10T13:09:31.102Z,4.57
2023-01-10T13:12:17.251Z,4.20
2023-01-10T13:15:06.371Z,4.70
2023-01-10T13:17:34.297Z,4.43
2023-01-10T13:20:17.159Z,4.25
2023-01-10T13:22:52.297Z,4.65
2023-01-10T13:25:37.838Z,4.38
2023-01-10T13:28:34.790Z,3.53
2023-01-10T13:31:08.600Z,3.42
2023-01-10T13:33:55.561Z,4.95
2023-01-10T13:36:30.476Z,4.65
2023-01-10T13:39:02.833Z,4.63
2023-01-10T13:42:17.114Z,3.90
2023-01-10T13:45:09.926Z,3.53
2023-01-10T13:47:40.510Z,3.88
2023-01-10T13:50:33.849Z,3.88
2023-01-10T13:53:05.164Z,3.63
2023-01-10T13:55:42.365Z,3.72
2023-01-10T13:58:16.207Z,3.17
2023-01-10T14:01:09.540Z,3.13
2023-01-10T14:03:53.041Z,3.13
2023-01-10T14:06:40.869Z,2.72
2023-01-10T14:09:14.538Z,3.65
2023-01-10T14:11:45.602Z,2.97
2023-01-10T14:14:23.655Z,3.00
2023-01-10T14:17:21.776Z,3.50
2023-01-10T14:20:10.666Z,3.65
2023-01-10T14:22:39.555Z,3.63
2023-01-10T14:25:20.311Z,3.67
2023-01-10T14:27:51.474Z,3.53
2023-01-10T14:30:37.865Z,2.65
2023-01-10T14:33:16.885Z,2.50
2023-01-10T14:35:50.566Z,3.15
2023-01-10T14:38:36.081Z,2.25
2023-01-10T14:41:38.375Z,2.90
2023-01-10T14:44:29.475Z,3.35
2023-01-10T14:46:59.498Z,3.22
2023-01-10T14:49:49.584Z,2.90
2023-01-10T14:52:25.329Z,2.80
2023-01-10T14:55:17.967Z,2.55
2023-01-10T14:58:00.059Z,2.42
2023-01-10T15:00:36.456Z,2.25
2023-01-10T15:03:04.764Z,2.63
2023-01-10T15:06:01.289Z,2.13
2023-01-10T15:08:59.363Z,2.80
2023-01-10T15:11:35.554Z,2.20
2023-01-10T15:14:08.206Z,2.83
2023-01-10T15:16:37.086Z,2.47
2023-01-10T15:19:05.129Z,2.67
2023-01-10T15:21:33.030Z,2.25
2023-01-10T15:24:00.934Z,2.53
2023-01-10T15:26:34.078Z,2.90
2023-01-10T15:29:22.381Z,2.85
2023-01-10T15:31:51.165Z,2.97
2023-01-10T15:34:22.291Z,2.33
2023-01-10T15:36:56.518Z,1.73
2023-01-10T15:39:38.326Z,2.20
2023-01-10T15:42:11.716Z,2.35
2023-01-10T15:44:40.823Z,2.45
2023-01-10T15:47:49.397Z,2.03
2023-01-10T15:50:19.637Z,2.83
2023-01-10T15:52:50.057Z,1.95
2023-01-10T15:55:56.460Z,2.55
2023-01-10T15:58:35.845Z,1.88
2023-01-10T16:01:07.197Z,2.67
2023-01-10T16:04:05.123Z,1.90
2023-01-10T16:06:36.028Z,1.80
2023-01-10T16:09:07.579Z,2.72
2023-01-10T16:12:08.627Z,2.22
2023-01-10T16:14:37.814Z,2.42
2023-01-10T16:17:06.152Z,1.70
2023-01-10T16:19:37.958Z,1.83
2023-01-10T16:22:06.129Z,2.15
2023-01-10T16:24:36.086Z,2.00
2023-01-10T16:27:05.898Z,1.48
2023-01-10T16:29:34.041Z,1.58
2023-01-10T16:32:02.087Z,1.92
2023-01-10T16:34:33.790Z,1.55
2023-01-10T16:37:01.622Z,2.15
2023-01-10T16:39:29.536Z,2.05
2023-01-10T16:42:16.086Z,1.88
2023-01-10T16:44:45.629Z,2.22
2023-01-10T16:47:13.562Z,1.95
2023-01-10T16:49:41.854Z,1.08
2023-01-10T16:52:13.882Z,1.48
2023-01-10T16:54:41.880Z,1.80
2023-01-10T16:57:12.256Z,1.73
2023-01-10T16:59:40.485Z,1.73
2023-01-10T17:02:17.922Z,2.20
2023-01-10T17:04:50.168Z,1.45
2023-01-10T17:08:20.489Z,1.70
2023-01-10T17:10:56.273Z,2.10
2023-01-10T17:13:49.472Z,1.65
2023-01-10T17:16:19.629Z,1.95
2023-01-10T17:18:48.232Z,1.30
2023-01-10T17:21:22.035Z,2.35
2023-01-10T17:23:50.649Z,1.73
2023-01-10T17:26:19.979Z,1.80
2023-01-10T17:28:49.638Z,1.88
2023-01-10T17:31:19.615Z,2.60
2023-01-10T17:34:12.164Z,2.25
2023-01-10T17:36:40.901Z,1.90
2023-01-10T17:39:08.843Z,1.08
2023-01-10T17:41:36.676Z,1.33
2023-01-10T17:44:04.715Z,1.77
2023-01-10T17:46:32.581Z,1.00
2023-01-10T17:49:02.560Z,1.55
2023-01-10T17:51:30.763Z,2.03
2023-01-10T17:53:58.893Z,1.75
2023-01-10T17:56:31.057Z,1.95
2023-01-10T17:58:58.892Z,2.08
2023-01-10T18:01:28.434Z,2.22
2023-01-10T18:03:56.879Z,1.45
2023-01-10T18:06:25.621Z,1.65
2023-01-10T18:08:54.079Z,1.88
2023-01-10T18:11:24.988Z,1.60
2023-01-10T18:13:53.057Z,1.95
2023-01-10T18:16:21.351Z,1.52
2023-01-10T18:18:50.458Z,2.30
2023-01-10T18:21:19.410Z,2.00
2023-01-10T18:23:49.807Z,1.98
2023-01-10T18:26:17.878Z,2.35
2023-01-10T18:28:45.829Z,2.15
2023-01-10T18:31:16.310Z,1.58
2023-01-10T18:33:45.832Z,1.77
2023-01-10T18:36:19.700Z,2.17
2023-01-10T18:38:48.318Z,1.73
2023-01-10T18:41:17.085Z,1.30
2023-01-10T18:43:45.443Z,2.78
2023-01-10T18:46:20.127Z,1.60
2023-01-10T18:48:52.754Z,1.80
2023-01-10T18:51:22.557Z,2.88
2023-01-10T18:54:12.123Z,1.75
2023-01-10T18:56:41.110Z,1.83
2023-01-10T18:59:18.999Z,2.22
2023-01-10T19:01:46.930Z,2.38
2023-01-10T19:04:31.055Z,2.97
2023-01-10T19:07:24.653Z,1.73
2023-01-10T19:09:52.663Z,2.30
2023-01-10T19:12:45.259Z,2.05
2023-01-10T19:15:15.349Z,2.03
2023-01-10T19:18:08.299Z,1.73
2023-01-10T19:20:36.302Z,2.33
2023-01-10T19:23:04.167Z,1.63
2023-01-10T19:25:34.081Z,2.33
2023-01-10T19:28:02.749Z,1.60
2023-01-10T19:30:30.707Z,1.58
2023-01-10T19:32:58.594Z,1.50
2023-01-10T19:35:26.491Z,2.28
2023-01-10T19:37:54.352Z,1.63
2023-01-10T19:40:22.260Z,1.85
2023-01-10T19:42:50.078Z,1.95
2023-01-10T19:45:18.010Z,2.13
2023-01-10T19:47:46.009Z,1.73
2023-01-10T19:50:13.958Z,1.98
2023-01-10T19:52:43.514Z,2.10
2023-01-10T19:55:11.387Z,2.40
2023-01-10T19:57:39.546Z,2.00
2023-01-10T20:00:08.169Z,2.08
2023-01-10T20:02:39.318Z,1.38
2023-01-10T20:05:07.562Z,1.85
2023-01-10T20:07:35.386Z,1.27
2023-01-10T20:10:03.306Z,1.70
2023-01-10T20:12:31.204Z,1.30
2023-01-10T20:15:00.994Z,1.75
2023-01-10T20:17:29.950Z,2.13
2023-01-10T20:19:58.028Z,1.40
2023-01-10T20:22:26.501Z,1.40
2023-01-10T20:24:54.467Z,1.60
2023-01-10T20:27:22.410Z,1.52
2023-01-10T20:29:50.409Z,1.35
2023-01-10T20:32:19.586Z,1.67
2023-01-10T20:34:49.496Z,1.98
2023-01-10T20:37:17.802Z,1.50
2023-01-10T20:39:46.459Z,1.50
2023-01-10T20:42:14.510Z,1.00
2023-01-10T20:44:42.355Z,1.30
2023-01-10T20:47:10.291Z,1.73
2023-01-10T20:49:38.117Z,1.70
2023-01-10T20:52:06.028Z,1.30
2023-01-10T20:54:34.724Z,1.20
2023-01-10T20:57:03.173Z,1.50
2023-01-10T20:59:32.270Z,1.00
2023-01-10T21:02:01.078Z,1.42
2023-01-10T21:04:29.646Z,1.00
2023-01-10T21:06:57.611Z,1.45
2023-01-10T21:09:25.633Z,1.48
2023-01-10T21:12:04.473Z,1.33
2023-01-10T21:14:38.419Z,1.10
2023-01-10T21:17:06.252Z,1.23
2023-01-10T21:19:34.212Z,1.20
2023-01-10T21:22:02.136Z,1.17
2023-01-10T21:24:30.015Z,1.38
2023-01-10T21:26:58.481Z,1.10
2023-01-10T21:29:26.509Z,1.25
2023-01-10T21:31:54.522Z,0.93
2023-01-10T21:34:22.519Z,1.35
2023-01-10T21:36:51.252Z,1.08
2023-01-10T21:39:19.244Z,1.30
2023-01-10T21:42:05.646Z,1.08
2023-01-10T21:44:33.786Z,1.00
2023-01-10T21:47:01.762Z,1.65
2023-01-10T21:49:29.783Z,1.50
2023-01-10T21:51:57.805Z,1.10
2023-01-10T21:54:25.694Z,1.35
2023-01-10T21:56:53.620Z,1.27
2023-01-10T21:59:21.453Z,1.30
2023-01-10T22:01:50.353Z,1.17
2023-01-10T22:04:18.367Z,1.13
2023-01-10T22:06:46.321Z,1.15
2023-01-10T22:09:14.318Z,1.10
2023-01-10T22:11:42.240Z,1.50
2023-01-10T22:14:12.267Z,1.10
2023-01-10T22:16:40.263Z,1.65
2023-01-10T22:19:08.286Z,1.10
2023-01-10T22:21:36.159Z,1.33
2023-01-10T22:24:04.426Z,1.73
2023-01-10T22:26:32.255Z,2.03
2023-01-10T22:29:00.157Z,1.48
2023-01-10T22:31:28.076Z,1.75
2023-01-10T22:33:55.940Z,1.50
2023-01-10T22:36:23.842Z,1.85
2023-01-10T22:38:51.722Z,1.30
2023-01-10T22:41:26.720Z,1.60
2023-01-10T22:43:55.030Z,1.65
2023-01-10T22:46:23.313Z,1.83
2023-01-10T22:48:51.265Z,1.55
2023-01-10T22:51:21.081Z,1.70
2023-01-10T22:53:51.142Z,1.35
2023-01-10T22:56:19.491Z,1.00
2023-01-10T22:58:50.110Z,1.75
2023-01-10T23:01:20.402Z,1.38
2023-01-10T23:03:48.672Z,1.60
2023-01-10T23:06:18.239Z,1.30
2023-01-10T23:08:46.604Z,1.48
2023-01-10T23:11:20.229Z,1.50
2023-01-10T23:13:48.789Z,1.52
2023-01-10T23:16:28.492Z,1.15
2023-01-10T23:18:58.096Z,1.58
2023-01-10T23:21:29.234Z,1.40
2023-01-10T23:23:57.332Z,1.05
2023-01-10T23:26:25.232Z,1.63
2023-01-10T23:28:53.481Z,1.77
2023-01-10T23:31:24.131Z,1.38
2023-01-10T23:33:52.767Z,1.70
2023-01-10T23:36:21.942Z,1.55
2023-01-10T23:38:50.324Z,1.05
2023-01-10T23:41:21.123Z,1.38
2023-01-10T23:43:50.370Z,1.50
2023-01-10T23:46:18.584Z,1.50
2023-01-10T23:48:48.336Z,1.10
2023-01-10T23:51:16.341Z,1.55
2023-01-10T23:53:44.216Z,1.50
2023-01-10T23:56:14.460Z,1.45
2023-01-10T23:58:42.637Z,1.73
